createdAt,value
2022-09-20T00:01:37.889Z,100044.22
2022-09-20T00:04:14.382Z,100048.94
2022-09-20T00:06:46.836Z,100051.78
2022-09-20T00:09:14.867Z,100049.72
2022-09-20T00:11:42.604Z,100053.22
2022-09-20T00:14:10.464Z,100049.00
2022-09-20T00:16:40.672Z,100052.00
2022-09-20T00:19:09.163Z,100053.81
2022-09-20T00:21:38.134Z,100055.75
2022-09-20T00:24:06.331Z,100059.00
2022-09-20T00:26:34.350Z,100059.03
2022-09-20T00:29:02.222Z,100051.94
2022-09-20T00:31:30.011Z,100051.97
2022-09-20T00:34:19.103Z,100063.66
2022-09-20T00:36:46.868Z,100049.94
2022-09-20T00:39:16.322Z,100061.84
2022-09-20T00:41:45.310Z,100054.69
2022-09-20T00:44:47.866Z,100054.94
2022-09-20T00:47:36.953Z,100057.38
2022-09-20T00:50:12.927Z,100056.13
2022-09-20T00:52:45.897Z,100056.94
2022-09-20T00:55:15.596Z,100055.75
2022-09-20T00:57:45.033Z,100049.16
2022-09-20T01:00:14.491Z,100051.19
2022-09-20T01:02:48.165Z,100062.41
2022-09-20T01:05:18.810Z,100054.66
2022-09-20T01:07:48.699Z,100052.75
2022-09-20T01:10:16.752Z,100060.94
2022-09-20T01:12:46.265Z,100056.44
2022-09-20T01:15:15.931Z,100054.22
2022-09-20T01:17:48.482Z,100059.53
2022-09-20T01:20:18.569Z,100059.53
2022-09-20T01:22:55.136Z,100061.00
2022-09-20T01:25:49.726Z,100063.66
2022-09-20T01:28:18.434Z,100064.88
2022-09-20T01:31:01.120Z,100064.03
2022-09-20T01:33:40.463Z,100066.06
2022-09-20T01:36:14.243Z,100071.56
2022-09-20T01:39:12.570Z,100077.94
2022-09-20T01:41:49.084Z,100077.75
2022-09-20T01:44:36.203Z,100083.44
2022-09-20T01:47:29.875Z,100077.50
2022-09-20T01:50:25.186Z,100071.97
2022-09-20T01:53:29.392Z,100069.91
2022-09-20T01:56:18.163Z,100065.38
2022-09-20T01:59:23.681Z,100071.47
2022-09-20T02:02:03.963Z,100071.22
2022-09-20T02:04:43.829Z,100070.03
2022-09-20T02:07:14.331Z,100076.16
2022-09-20T02:09:55.131Z,100071.28
2022-09-20T02:12:39.812Z,100084.59
2022-09-20T02:15:34.498Z,100076.59
2022-09-20T02:18:34.435Z,100077.88
2022-09-20T02:21:52.075Z,100082.59
2022-09-20T02:24:29.498Z,100087.13
2022-09-20T02:27:37.029Z,100081.22
2022-09-20T02:53:38.528Z,100102.81
2022-09-20T02:56:12.243Z,100097.03
2022-09-20T02:59:21.021Z,100092.78
2022-09-20T03:02:44.260Z,100092.41
2022-09-20T03:05:55.688Z,100094.84
2022-09-20T03:15:07.589Z,100113.78
2022-09-20T03:18:08.265Z,100119.25
2022-09-20T03:20:52.413Z,100117.13
2022-09-20T03:23:29.854Z,100120.13
2022-09-20T03:26:21.762Z,100110.19
2022-09-20T03:29:13.226Z,100112.41
2022-09-20T03:31:55.095Z,100114.25
2022-09-20T03:34:25.682Z,100117.13
2022-09-20T03:37:17.855Z,100113.00
2022-09-20T03:40:27.127Z,100115.28
2022-09-20T03:43:05.989Z,100123.66
2022-09-20T03:46:00.762Z,100122.53
2022-09-20T03:48:55.811Z,100125.44
2022-09-20T03:51:35.654Z,100127.69
2022-09-20T03:54:24.457Z,100122.63
2022-09-20T03:57:28.847Z,100118.94
2022-09-20T04:00:21.602Z,100127.13
2022-09-20T04:03:14.200Z,100126.31
2022-09-20T04:06:18.096Z,100140.50
2022-09-20T04:09:14.000Z,100135.97
2022-09-20T04:11:57.699Z,100137.75
2022-09-20T04:14:51.677Z,100136.34
2022-09-20T04:17:40.846Z,100144.66
2022-09-20T04:20:53.629Z,100142.19
2022-09-20T04:23:44.789Z,100146.41
2022-09-20T04:26:15.907Z,100145.97
2022-09-20T04:28:48.938Z,100148.97
2022-09-20T04:31:33.760Z,100148.03
2022-09-20T04:34:04.160Z,100151.91
2022-09-20T04:37:02.984Z,100151.59
2022-09-20T04:39:56.265Z,100168.13
2022-09-20T04:42:52.048Z,100159.78
2022-09-20T04:46:18.707Z,100168.25
2022-09-20T04:49:35.678Z,100178.47
2022-09-20T04:52:06.654Z,100171.53
2022-09-20T04:55:12.985Z,100180.84
2022-09-20T04:58:09.085Z,100181.47
2022-09-20T05:01:02.827Z,100186.31
2022-09-20T05:04:04.118Z,100186.75
2022-09-20T05:06:44.179Z,100190.59
2022-09-20T05:09:30.440Z,100202.50
2022-09-20T05:12:26.205Z,100203.44
2022-09-20T05:15:34.366Z,100208.72
2022-09-20T05:18:35.916Z,100215.38
2022-09-20T05:21:15.762Z,100211.31
2022-09-20T05:24:01.207Z,100220.63
2022-09-20T05:27:25.840Z,100225.03
2022-09-20T05:30:04.847Z,100220.53
2022-09-20T05:32:36.298Z,100221.25
2022-09-20T05:35:32.980Z,100217.25
2022-09-20T05:38:16.821Z,100223.13
2022-09-20T05:41:00.448Z,100226.94
2022-09-20T05:56:21.575Z,100236.13
2022-09-20T05:59:11.953Z,100236.84
2022-09-20T06:02:02.730Z,100242.63
2022-09-20T06:04:42.156Z,100238.25
2022-09-20T06:07:21.015Z,100243.56
2022-09-20T06:10:47.666Z,100247.47
2022-09-20T06:13:22.797Z,100240.59
2022-09-20T06:16:04.697Z,100237.41
2022-09-20T06:18:48.050Z,100244.69
2022-09-20T06:21:41.087Z,100248.16
2022-09-20T06:24:22.726Z,100249.19
2022-09-20T06:26:55.584Z,100257.66
2022-09-20T06:29:31.288Z,100265.13
2022-09-20T06:31:59.175Z,100262.56
2022-09-20T06:34:28.898Z,100266.50
2022-09-20T06:37:56.638Z,100269.41
2022-09-20T06:40:59.291Z,100274.31
2022-09-20T06:43:28.016Z,100277.38
2022-09-20T06:45:55.644Z,100278.06
2022-09-20T06:48:25.408Z,100280.56
2022-09-20T06:50:53.208Z,100282.25
2022-09-20T06:53:29.623Z,100285.38
2022-09-20T06:55:58.087Z,100287.19
2022-09-20T06:58:26.944Z,100287.97
2022-09-20T07:00:54.958Z,100286.09
2022-09-20T07:03:22.676Z,100288.03
2022-09-20T07:05:50.664Z,100292.97
2022-09-20T07:08:18.337Z,100291.50
2022-09-20T07:10:46.349Z,100291.88
2022-09-20T07:13:14.134Z,100300.69
2022-09-20T07:15:41.876Z,100305.66
2022-09-20T07:18:09.822Z,100301.00
2022-09-20T07:20:37.599Z,100300.75
2022-09-20T07:23:05.283Z,100305.94
2022-09-20T07:25:33.253Z,100308.47
2022-09-20T07:28:01.089Z,100310.56
2022-09-20T07:30:28.974Z,100317.75
2022-09-20T07:32:56.747Z,100317.19
2022-09-20T07:35:24.496Z,100326.06
2022-09-20T07:37:57.984Z,100325.22
2022-09-20T07:40:26.681Z,100336.34
2022-09-20T07:42:57.851Z,100334.69
2022-09-20T07:45:26.012Z,100335.22
2022-09-20T07:47:54.891Z,100337.69
2022-09-20T07:50:22.729Z,100336.63
2022-09-20T07:52:51.529Z,100340.69
2022-09-20T07:55:19.546Z,100335.19
2022-09-20T07:57:47.336Z,100345.28
2022-09-20T08:00:15.612Z,100340.63
2022-09-20T08:02:45.210Z,100353.00
2022-09-20T08:05:12.998Z,100347.63
2022-09-20T08:07:40.694Z,100353.41
2022-09-20T08:10:08.761Z,100341.47
2022-09-20T08:15:26.093Z,100353.63
2022-09-20T08:17:53.858Z,100355.06
2022-09-20T08:20:21.684Z,100355.91
2022-09-20T08:23:06.227Z,100356.09
2022-09-20T08:25:38.543Z,100356.47
2022-09-20T08:28:06.218Z,100362.44
2022-09-20T08:30:33.923Z,100368.41
2022-09-20T08:33:04.197Z,100370.41
2022-09-20T08:35:31.920Z,100368.13
2022-09-20T08:39:57.183Z,100370.25
2022-09-20T08:40:49.648Z,100377.59
2022-09-20T08:43:22.429Z,100371.00
2022-09-20T08:45:50.647Z,100374.09
2022-09-20T08:48:22.025Z,100377.78
2022-09-20T08:50:50.163Z,100379.22
2022-09-20T08:53:21.285Z,100374.53
2022-09-20T08:55:49.374Z,100379.06
2022-09-20T08:58:17.124Z,100381.78
2022-09-20T09:00:47.210Z,100379.13
2022-09-20T09:03:18.116Z,100384.28
2022-09-20T09:05:52.027Z,100380.78
2022-09-20T09:08:24.369Z,100381.41
2022-09-20T09:10:57.961Z,100382.22
2022-09-20T09:13:37.385Z,100379.75
2022-09-20T09:16:33.725Z,100387.56
2022-09-20T09:19:36.308Z,100384.69
2022-09-20T09:22:05.862Z,100387.16
2022-09-20T09:24:33.709Z,100392.91
2022-09-20T09:27:16.632Z,100396.41
2022-09-20T09:29:53.257Z,100398.47
2022-09-20T09:32:29.852Z,100386.75
2022-09-20T09:35:30.282Z,100392.31
2022-09-20T09:38:01.139Z,100398.88
2022-09-20T09:40:31.834Z,100391.88
2022-09-20T09:43:04.384Z,100393.31
2022-09-20T09:45:36.445Z,100394.78
2022-09-20T09:48:30.820Z,100393.94
2022-09-20T09:51:19.524Z,100402.75
2022-09-20T09:53:51.558Z,100400.25
2022-09-20T09:56:57.458Z,100398.13
2022-09-20T09:59:55.398Z,100404.66
2022-09-20T10:02:41.248Z,100407.28
2022-09-20T10:05:15.548Z,100408.63
2022-09-20T10:07:55.263Z,100409.22
2022-09-20T10:10:45.448Z,100421.09
2022-09-20T10:13:44.253Z,100415.72
2022-09-20T10:16:35.196Z,100416.78
2022-09-20T10:19:24.909Z,100414.16
2022-09-20T10:21:52.659Z,100410.91
2022-09-20T10:24:51.013Z,100409.97
2022-09-20T10:27:56.663Z,100410.16
2022-09-20T10:30:31.813Z,100413.38
2022-09-20T10:33:30.446Z,100411.22
2022-09-20T10:36:24.331Z,100405.31
2022-09-20T10:39:06.182Z,100415.78
2022-09-20T10:42:17.619Z,100411.00
2022-09-20T10:44:46.620Z,100408.38
2022-09-20T10:47:20.442Z,100414.81
2022-09-20T10:50:19.203Z,100409.59
2022-09-20T10:52:53.402Z,100406.47
2022-09-20T10:55:36.212Z,100408.22
2022-09-20T10:58:31.934Z,100401.91
2022-09-20T11:01:10.020Z,100400.66
2022-09-20T11:04:05.947Z,100400.25
2022-09-20T11:07:03.196Z,100403.97
2022-09-20T11:09:38.408Z,100405.47
2022-09-20T11:12:23.953Z,100404.69
2022-09-20T11:15:02.872Z,100401.41
2022-09-20T11:17:39.015Z,100403.75
2022-09-20T11:20:19.132Z,100399.91
2022-09-20T11:22:55.516Z,100399.41
2022-09-20T11:25:32.197Z,100400.34
2022-09-20T11:28:22.417Z,100400.84
2022-09-20T11:31:08.572Z,100406.44
2022-09-20T11:33:58.004Z,100400.25
2022-09-20T11:36:57.561Z,100409.81
2022-09-20T11:39:51.460Z,100412.94
2022-09-20T11:42:23.612Z,100404.31
2022-09-20T11:44:52.085Z,100403.03
2022-09-20T11:47:53.200Z,100406.25
2022-09-20T11:51:04.265Z,100404.81
2022-09-20T11:53:53.446Z,100405.00
2022-09-20T11:56:25.455Z,100403.44
2022-09-20T11:58:56.243Z,100400.28
2022-09-20T12:01:35.323Z,100396.19
2022-09-20T12:04:32.219Z,100399.38
2022-09-20T12:07:08.936Z,100394.59
2022-09-20T12:09:42.885Z,100399.78
2022-09-20T12:12:27.586Z,100399.03
2022-09-20T12:14:57.699Z,100406.41
2022-09-20T12:17:47.415Z,100401.81
2022-09-20T12:20:45.150Z,100397.53
2022-09-20T12:23:40.867Z,100393.50
2022-09-20T12:26:14.340Z,100391.16
2022-09-20T12:28:45.566Z,100396.53
2022-09-20T12:31:21.792Z,100393.09
2022-09-20T12:34:12.465Z,100385.22
2022-09-20T12:36:44.714Z,100382.31
2022-09-20T12:39:13.611Z,100379.44
2022-09-20T12:41:58.756Z,100386.75
2022-09-20T12:44:40.540Z,100387.44
2022-09-20T12:47:08.751Z,100384.50
2022-09-20T12:50:06.757Z,100379.47
2022-09-20T12:52:58.856Z,100390.66
2022-09-20T12:55:27.279Z,100388.88
2022-09-20T12:57:58.756Z,100388.06
2022-09-20T13:00:34.705Z,100377.72
2022-09-20T13:03:29.544Z,100383.34
2022-09-20T13:06:06.838Z,100378.44
2022-09-20T13:08:55.797Z,100384.41
2022-09-20T13:11:28.278Z,100386.28
2022-09-20T13:14:04.939Z,100387.56
2022-09-20T13:16:51.682Z,100389.59
2022-09-20T13:19:29.467Z,100386.19
2022-09-20T13:21:58.802Z,100396.47
2022-09-20T13:24:37.868Z,100394.56
2022-09-20T13:27:09.764Z,100402.06
2022-09-20T13:29:45.164Z,100406.13
2022-09-20T13:32:30.736Z,100410.00
2022-09-20T13:35:10.896Z,100414.41
2022-09-20T13:37:46.003Z,100419.66
2022-09-20T13:40:36.873Z,100426.53
2022-09-20T13:43:23.253Z,100442.06
2022-09-20T13:45:56.669Z,100451.25
2022-09-20T13:48:26.777Z,100441.28
2022-09-20T13:50:55.648Z,100438.88
2022-09-20T13:53:48.721Z,100429.66
2022-09-20T13:56:30.203Z,100428.91
2022-09-20T13:59:05.388Z,100428.13
2022-09-20T14:01:35.872Z,100426.09
2022-09-20T14:04:10.636Z,100419.06
2022-09-20T14:06:40.845Z,100410.63
2022-09-20T14:09:37.165Z,100411.91
2022-09-20T14:12:07.282Z,100406.31
2022-09-20T14:14:36.525Z,100413.09
2022-09-20T14:17:09.091Z,100406.06
2022-09-20T14:19:41.595Z,100403.50
2022-09-20T14:22:19.489Z,100408.19
2022-09-20T14:25:18.866Z,100399.03
2022-09-20T14:27:46.769Z,100409.50
2022-09-20T14:30:36.425Z,100409.00
2022-09-20T14:33:07.376Z,100414.53
2022-09-20T14:35:35.076Z,100412.91
2022-09-20T14:38:08.822Z,100412.13
2022-09-20T14:40:45.837Z,100410.69
2022-09-20T14:43:21.995Z,100415.22
2022-09-20T14:45:55.937Z,100412.56
2022-09-20T14:48:23.795Z,100416.66
2022-09-20T14:51:23.293Z,100437.50
2022-09-20T14:54:22.584Z,100442.88
2022-09-20T14:56:53.142Z,100443.97
2022-09-20T14:59:25.665Z,100454.81
2022-09-20T15:02:17.233Z,100453.84
2022-09-20T15:05:37.933Z,100460.50
2022-09-20T15:08:15.807Z,100456.59
2022-09-20T15:10:44.322Z,100458.41
2022-09-20T15:13:12.133Z,100466.66
2022-09-20T15:15:40.022Z,100463.72
2022-09-20T15:18:27.396Z,100459.38
2022-09-20T15:20:55.717Z,100459.78
2022-09-20T15:23:23.551Z,100461.22
2022-09-20T15:25:53.050Z,100458.75
2022-09-20T15:28:21.170Z,100460.59
2022-09-20T15:31:00.133Z,100455.47
2022-09-20T15:33:32.472Z,100470.94
2022-09-20T15:36:02.761Z,100477.94
2022-09-20T15:38:30.790Z,100492.97
2022-09-20T15:41:01.664Z,100495.63
2022-09-20T15:43:31.165Z,100496.81
2022-09-20T15:46:01.254Z,100498.25
2022-09-20T15:48:31.584Z,100496.38
2022-09-20T15:51:09.075Z,100494.31
2022-09-20T15:53:43.430Z,100485.03
2022-09-20T15:56:17.145Z,100491.22
2022-09-20T15:58:59.534Z,100486.84
2022-09-20T16:01:33.027Z,100491.97
2022-09-20T16:04:04.567Z,100488.91
2022-09-20T16:06:33.131Z,100482.75
2022-09-20T16:09:00.685Z,100489.34
2022-09-20T16:11:28.452Z,100493.66
2022-09-20T16:13:57.938Z,100497.38
2022-09-20T16:16:27.372Z,100490.81
2022-09-20T16:19:14.331Z,100493.06
2022-09-20T16:21:43.876Z,100499.25
2022-09-20T16:24:14.785Z,100502.91
2022-09-20T16:27:34.360Z,100502.31
2022-09-20T16:30:03.644Z,100501.09
2022-09-20T16:32:31.356Z,100491.38
2022-09-20T16:35:01.337Z,100499.22
2022-09-20T16:37:32.989Z,100480.09
2022-09-20T16:40:02.155Z,100483.00
2022-09-20T16:42:58.801Z,100487.75
2022-09-20T16:45:27.685Z,100492.03
2022-09-20T16:47:58.195Z,100492.66
2022-09-20T16:50:25.861Z,100505.19
2022-09-20T16:52:53.456Z,100502.31
2022-09-20T16:55:46.498Z,100506.19
2022-09-20T16:58:15.689Z,100504.31
2022-09-20T17:00:43.472Z,100511.13
2022-09-20T17:03:12.406Z,100511.31
2022-09-20T17:05:44.874Z,100519.97
2022-09-20T17:08:15.134Z,100518.34
2022-09-20T17:10:43.039Z,100525.09
2022-09-20T17:13:10.991Z,100522.25
2022-09-20T17:15:39.006Z,100528.81
2022-09-20T17:18:08.798Z,100525.94
2022-09-20T17:20:41.934Z,100533.31
2022-09-20T17:23:35.772Z,100528.81
2022-09-20T17:26:32.463Z,100536.81
2022-09-20T17:29:25.600Z,100541.53
2022-09-20T17:31:55.996Z,100544.22
2022-09-20T17:34:28.150Z,100550.41
2022-09-20T17:36:55.904Z,100547.91
2022-09-20T17:39:23.996Z,100550.59
2022-09-20T17:41:51.995Z,100545.88
2022-09-20T17:44:19.683Z,100554.91
2022-09-20T17:46:50.126Z,100553.44
2022-09-20T17:49:23.222Z,100555.44
2022-09-20T17:51:53.497Z,100560.16
2022-09-20T17:54:22.357Z,100562.00
2022-09-20T17:56:52.441Z,100558.28
2022-09-20T17:59:20.771Z,100569.28
2022-09-20T18:01:51.152Z,100569.09
2022-09-20T18:04:21.089Z,100575.28
2022-09-20T18:06:51.882Z,100577.09
2022-09-20T18:09:25.153Z,100580.06
2022-09-20T18:11:55.952Z,100585.06
2022-09-20T18:14:30.313Z,100581.16
2022-09-20T18:17:01.389Z,100588.38
2022-09-20T18:19:34.110Z,100593.31
2022-09-20T18:22:03.517Z,100588.34
2022-09-20T18:24:34.845Z,100591.63
2022-09-20T18:27:04.089Z,100590.53
2022-09-20T18:29:36.840Z,100588.88
2022-09-20T18:32:04.809Z,100592.31
2022-09-20T18:34:34.356Z,100590.28
2022-09-20T18:37:03.962Z,100600.97
2022-09-20T18:39:33.844Z,100593.41
2022-09-20T18:42:02.766Z,100598.56
2022-09-20T18:44:33.778Z,100609.47
2022-09-20T18:47:04.004Z,100607.78
2022-09-20T18:49:32.298Z,100612.47
2022-09-20T18:52:25.676Z,100619.94
2022-09-20T18:54:56.056Z,100614.38
2022-09-20T18:57:24.127Z,100620.75
2022-09-20T19:00:03.146Z,100616.44
2022-09-20T19:03:16.243Z,100614.31
2022-09-20T19:05:51.403Z,100623.13
2022-09-20T19:08:36.540Z,100620.41
2022-09-20T19:11:12.925Z,100630.00
2022-09-20T19:13:54.791Z,100631.47
2022-09-20T19:16:30.815Z,100627.72
2022-09-20T19:19:14.315Z,100625.34
2022-09-20T19:21:58.728Z,100630.81
2022-09-20T19:24:55.917Z,100630.72
2022-09-20T19:27:25.625Z,100634.25
2022-09-20T19:29:54.588Z,100631.81
2022-09-20T19:32:26.368Z,100637.81
2022-09-20T19:35:01.876Z,100633.34
2022-09-20T19:37:32.363Z,100639.38
2022-09-20T19:40:12.294Z,100637.03
2022-09-20T19:42:53.271Z,100644.66
2022-09-20T19:45:34.172Z,100644.22
2022-09-20T19:48:50.615Z,100644.28
2022-09-20T19:51:18.810Z,100646.38
2022-09-20T19:53:47.029Z,100649.94
2022-09-20T19:56:14.836Z,100641.88
2022-09-20T19:58:44.672Z,100651.16
2022-09-20T20:01:13.132Z,100649.75
2022-09-20T20:03:43.615Z,100647.91
2022-09-20T20:06:58.355Z,100643.59
2022-09-20T20:09:37.830Z,100648.09
2022-09-20T20:12:16.883Z,100647.03
2022-09-20T20:15:22.245Z,100652.50
2022-09-20T20:18:02.031Z,100646.44
2022-09-20T20:20:34.241Z,100661.66
2022-09-20T20:23:23.739Z,100652.19
2022-09-20T20:26:26.531Z,100658.34
2022-09-20T20:28:54.500Z,100661.59
2022-09-20T20:31:23.217Z,100666.66
2022-09-20T20:33:52.574Z,100666.78
2022-09-20T20:36:21.396Z,100665.59
2022-09-20T20:38:53.445Z,100668.91
2022-09-20T20:41:22.091Z,100659.69
2022-09-20T20:43:57.301Z,100669.13
2022-09-20T20:46:26.165Z,100669.91
2022-09-20T20:48:54.187Z,100660.94
2022-09-20T20:51:23.091Z,100666.66
2022-09-20T20:53:52.992Z,100658.66
2022-09-20T20:56:28.939Z,100665.09
2022-09-20T20:59:47.678Z,100668.78
2022-09-20T21:03:00.038Z,100668.72
2022-09-20T21:05:32.897Z,100672.94
2022-09-20T21:11:44.888Z,100665.75
2022-09-20T21:15:02.038Z,100675.09
2022-09-20T21:17:51.436Z,100675.22
2022-09-20T21:20:21.775Z,100671.09
2022-09-20T21:22:49.516Z,100682.59
2022-09-20T21:25:17.674Z,100675.97
2022-09-20T21:27:45.473Z,100677.81
2022-09-20T21:30:13.925Z,100679.84
2022-09-20T21:32:42.395Z,100680.03
2022-09-20T21:35:10.417Z,100674.34
2022-09-20T21:37:41.116Z,100684.34
2022-09-20T21:40:10.156Z,100674.06
2022-09-20T21:42:37.976Z,100681.50
2022-09-20T21:45:09.584Z,100680.88
2022-09-20T21:47:37.430Z,100686.44
2022-09-20T21:50:05.491Z,100683.59
2022-09-20T21:52:33.307Z,100693.38
2022-09-20T21:55:01.067Z,100691.91
2022-09-20T21:57:29.018Z,100693.25
2022-09-20T21:59:56.750Z,100686.28
2022-09-20T22:02:24.486Z,100697.09
2022-09-20T22:04:52.312Z,100696.75
2022-09-20T22:07:20.102Z,100695.66
2022-09-20T22:09:47.994Z,100703.16
2022-09-20T22:12:15.755Z,100701.69
2022-09-20T22:14:44.631Z,100696.03
2022-09-20T22:17:12.295Z,100707.22
2022-09-20T22:19:40.178Z,100703.78
2022-09-20T22:22:08.719Z,100706.91
2022-09-20T22:24:36.557Z,100713.94
2022-09-20T22:27:04.446Z,100698.91
2022-09-20T22:29:32.116Z,100702.69
2022-09-20T22:31:59.901Z,100700.47
2022-09-20T22:34:27.655Z,100700.75
2022-09-20T22:36:55.471Z,100701.41
2022-09-20T22:39:23.245Z,100700.25
2022-09-20T22:41:51.627Z,100696.72
2022-09-20T22:44:19.375Z,100698.31
2022-09-20T22:46:47.135Z,100701.78
2022-09-20T22:49:14.981Z,100695.34
2022-09-20T22:51:44.451Z,100693.97
2022-09-20T22:54:13.043Z,100694.78
2022-09-20T22:56:44.385Z,100692.97
2022-09-20T22:59:13.963Z,100695.28
2022-09-20T23:01:44.117Z,100693.59
2022-09-20T23:04:14.499Z,100695.88
2022-09-20T23:06:49.482Z,100697.25
2022-09-20T23:09:18.662Z,100697.53
2022-09-20T23:11:46.927Z,100691.66
2022-09-20T23:14:19.720Z,100691.66
2022-09-20T23:16:48.390Z,100690.84
2022-09-20T23:19:16.939Z,100695.94
2022-09-20T23:21:45.165Z,100700.78
2022-09-20T23:24:14.761Z,100697.41
2022-09-20T23:26:43.924Z,100700.72
2022-09-20T23:29:14.312Z,100698.38
2022-09-20T23:31:46.037Z,100701.50
2022-09-20T23:34:16.204Z,100704.81
2022-09-20T23:36:44.802Z,100706.66
2022-09-20T23:39:13.217Z,100706.28
2022-09-20T23:41:41.850Z,100704.91
2022-09-20T23:44:11.610Z,100705.38
2022-09-20T23:46:39.722Z,100699.22
2022-09-20T23:49:09.378Z,100706.56
2022-09-20T23:51:37.554Z,100705.72
2022-09-20T23:54:05.820Z,100708.31
2022-09-20T23:56:33.959Z,100710.28
2022-09-20T23:59:01.620Z,100712.47
